createdAt,value
2022-11-15T00:01:10.824Z,5.95
2022-11-15T00:03:58.021Z,5.97
2022-11-15T00:06:45.332Z,5.98
2022-11-15T00:09:32.719Z,5.95
2022-11-15T00:12:19.748Z,5.97
2022-11-15T00:15:08.228Z,6.04
2022-11-15T00:17:55.690Z,6.07
2022-11-15T00:20:43.732Z,6.09
2022-11-15T00:23:30.947Z,6.07
2022-11-15T00:26:19.244Z,6.15
2022-11-15T00:29:06.823Z,6.11
2022-11-15T00:31:54.694Z,6.14
2022-11-15T00:34:41.899Z,6.15
2022-11-15T00:37:29.458Z,6.20
2022-11-15T00:40:17.563Z,6.28
2022-11-15T00:43:04.752Z,6.27
2022-11-15T00:45:51.879Z,6.27
2022-11-15T00:48:39.350Z,6.31
2022-11-15T00:51:26.661Z,6.36
2022-11-15T00:54:13.849Z,6.40
2022-11-15T00:57:01.211Z,6.46
2022-11-15T00:59:48.207Z,6.49
2022-11-15T01:02:35.828Z,6.56
2022-11-15T01:05:23.205Z,6.61
2022-11-15T01:08:13.605Z,6.66
2022-11-15T01:11:11.943Z,6.67
2022-11-15T01:13:59.109Z,6.77
2022-11-15T01:16:46.253Z,6.77
2022-11-15T01:19:33.544Z,6.84
2022-11-15T01:22:20.857Z,6.88
2022-11-15T01:25:08.928Z,6.99
2022-11-15T01:27:56.327Z,7.11
2022-11-15T01:30:43.476Z,7.22
2022-11-15T01:33:31.391Z,7.24
2022-11-15T01:36:23.963Z,7.30
2022-11-15T01:39:11.491Z,7.40
2022-11-15T01:41:58.855Z,7.53
2022-11-15T01:44:51.271Z,7.59
2022-11-15T01:47:41.304Z,7.68
2022-11-15T01:50:31.373Z,7.76
2022-11-15T01:53:19.634Z,7.81
2022-11-15T01:56:09.859Z,7.85
2022-11-15T01:58:59.033Z,7.95
2022-11-15T02:01:46.193Z,8.03
2022-11-15T02:04:40.100Z,8.04
2022-11-15T02:07:27.706Z,8.15
2022-11-15T02:10:23.341Z,8.26
2022-11-15T02:13:10.909Z,8.31
2022-11-15T02:16:10.762Z,8.41
2022-11-15T02:19:21.851Z,8.48
2022-11-15T02:22:18.688Z,8.52
2022-11-15T02:25:14.428Z,8.60
2022-11-15T02:28:30.540Z,8.69
2022-11-15T02:31:43.406Z,8.76
2022-11-15T02:34:55.289Z,8.88
2022-11-15T02:37:58.057Z,8.95
2022-11-15T02:40:50.961Z,9.03
2022-11-15T02:43:59.807Z,9.09
2022-11-15T02:47:10.885Z,9.17
2022-11-15T02:50:00.905Z,9.18
2022-11-15T02:52:49.887Z,9.19
2022-11-15T02:55:40.101Z,9.21
2022-11-15T02:58:46.981Z,9.29
2022-11-15T03:01:40.425Z,9.29
2022-11-15T03:04:31.381Z,9.29
2022-11-15T03:07:37.162Z,9.32
2022-11-15T03:10:27.290Z,9.34
2022-11-15T03:13:20.423Z,9.40
2022-11-15T03:16:08.621Z,9.43
2022-11-15T03:18:59.071Z,9.51
2022-11-15T03:21:47.704Z,9.45
2022-11-15T03:24:36.583Z,9.53
2022-11-15T03:27:27.399Z,9.53
2022-11-15T03:30:15.789Z,9.56
2022-11-15T03:33:04.828Z,9.64
2022-11-15T03:35:52.420Z,9.69
2022-11-15T03:38:41.075Z,9.72
2022-11-15T03:41:31.910Z,9.77
2022-11-15T03:44:34.665Z,9.71
2022-11-15T03:47:25.181Z,9.70
2022-11-15T03:50:15.440Z,9.71
2022-11-15T03:53:02.897Z,9.70
2022-11-15T03:55:49.667Z,9.64
2022-11-15T03:58:36.796Z,9.68
2022-11-15T04:01:24.284Z,9.65
2022-11-15T04:04:11.991Z,9.62
2022-11-15T04:06:59.287Z,9.61
2022-11-15T04:10:04.982Z,9.59
2022-11-15T04:12:51.896Z,9.58
2022-11-15T04:15:39.109Z,9.60
2022-11-15T04:18:26.918Z,9.57
2022-11-15T04:21:32.294Z,9.55
2022-11-15T04:24:19.594Z,9.52
2022-11-15T04:27:06.698Z,9.50
2022-11-15T04:29:53.862Z,9.46
2022-11-15T04:32:41.125Z,9.43
2022-11-15T04:35:28.355Z,9.42
2022-11-15T04:38:15.386Z,9.36
2022-11-15T04:41:02.972Z,9.26
2022-11-15T04:43:50.214Z,9.23
2022-11-15T04:46:37.545Z,9.20
2022-11-15T04:49:25.258Z,9.25
2022-11-15T04:52:12.421Z,9.27
2022-11-15T04:55:03.655Z,9.24
2022-11-15T04:57:48.747Z,9.24
2022-11-15T05:00:36.973Z,9.27
2022-11-15T05:03:42.028Z,9.26
2022-11-15T05:06:29.612Z,9.25
2022-11-15T05:09:17.154Z,9.28
2022-11-15T05:12:04.361Z,9.26
2022-11-15T05:14:51.857Z,9.31
2022-11-15T05:17:39.407Z,9.32
2022-11-15T05:20:26.704Z,9.38
2022-11-15T05:23:14.044Z,9.46
2022-11-15T05:26:08.017Z,9.51
2022-11-15T05:28:59.822Z,9.51
2022-11-15T05:31:47.038Z,9.56
2022-11-15T05:34:34.895Z,9.53
2022-11-15T05:37:22.269Z,9.55
2022-11-15T05:40:10.461Z,9.54
2022-11-15T05:42:57.993Z,9.57
2022-11-15T05:45:45.555Z,9.59
2022-11-15T05:48:33.792Z,9.53
2022-11-15T05:51:22.456Z,9.57
2022-11-15T05:54:10.489Z,9.60
2022-11-15T05:56:57.690Z,9.56
2022-11-15T05:59:45.454Z,9.55
2022-11-15T06:02:32.419Z,9.53
2022-11-15T06:05:20.003Z,9.49
2022-11-15T06:08:07.154Z,9.48
2022-11-15T06:10:54.544Z,9.47
2022-11-15T06:13:41.648Z,9.45
2022-11-15T06:16:29.315Z,9.47
2022-11-15T06:19:16.572Z,9.43
2022-11-15T06:22:03.923Z,9.38
2022-11-15T06:24:51.504Z,9.41
2022-11-15T06:27:38.665Z,9.43
2022-11-15T06:30:26.784Z,9.43
2022-11-15T06:33:14.332Z,9.47
2022-11-15T06:36:17.724Z,9.44
2022-11-15T06:39:06.056Z,9.41
2022-11-15T06:41:53.318Z,9.41
2022-11-15T06:44:40.545Z,9.39
2022-11-15T06:47:27.789Z,9.39
2022-11-15T06:50:15.153Z,9.34
2022-11-15T06:53:06.338Z,9.27
2022-11-15T06:55:55.570Z,9.21
2022-11-15T06:58:42.629Z,9.15
2022-11-15T07:01:29.912Z,9.15
2022-11-15T07:04:16.757Z,9.12
2022-11-15T07:07:04.350Z,9.08
2022-11-15T07:09:51.972Z,9.06
2022-11-15T07:12:39.362Z,9.08
2022-11-15T07:15:27.989Z,9.08
2022-11-15T07:18:15.319Z,9.08
2022-11-15T07:21:07.584Z,9.14
2022-11-15T07:23:54.853Z,9.13
2022-11-15T07:26:42.098Z,9.13
2022-11-15T07:29:29.595Z,9.15
2022-11-15T07:32:17.127Z,9.15
2022-11-15T07:35:04.766Z,9.15
2022-11-15T07:37:57.405Z,9.24
2022-11-15T07:40:44.593Z,9.21
2022-11-15T07:43:34.025Z,9.24
2022-11-15T07:46:21.543Z,9.22
2022-11-15T07:49:08.729Z,9.21
2022-11-15T07:51:55.996Z,9.21
2022-11-15T07:54:43.148Z,9.22
2022-11-15T07:57:31.268Z,9.28
2022-11-15T08:00:19.325Z,9.31
2022-11-15T08:03:12.742Z,9.30
2022-11-15T08:05:59.060Z,9.28
2022-11-15T08:08:46.375Z,9.27
2022-11-15T08:11:33.342Z,9.24
2022-11-15T08:14:22.332Z,9.26
2022-11-15T08:17:10.477Z,9.25
2022-11-15T08:19:57.928Z,9.34
2022-11-15T08:22:45.271Z,9.45
2022-11-15T08:25:33.685Z,9.48
2022-11-15T08:28:21.980Z,9.60
2022-11-15T08:31:11.052Z,9.73
2022-11-15T08:33:58.124Z,9.74
2022-11-15T08:36:46.264Z,9.77
2022-11-15T08:39:33.493Z,9.73
2022-11-15T08:42:21.107Z,9.72
2022-11-15T08:45:09.453Z,9.68
2022-11-15T08:47:56.883Z,9.63
2022-11-15T08:50:44.907Z,9.65
2022-11-15T08:53:32.232Z,9.64
2022-11-15T08:56:19.677Z,9.70
2022-11-15T08:59:06.724Z,9.80
2022-11-15T09:01:53.902Z,9.87
2022-11-15T09:04:43.386Z,9.96
2022-11-15T09:07:31.576Z,10.13
2022-11-15T09:10:19.256Z,10.10
2022-11-15T09:13:06.611Z,10.25
2022-11-15T09:15:54.252Z,10.41
2022-11-15T09:18:41.276Z,10.45
2022-11-15T09:21:28.709Z,10.46
2022-11-15T09:24:16.101Z,10.76
2022-11-15T09:27:03.381Z,11.20
2022-11-15T09:29:50.412Z,11.37
2022-11-15T09:32:39.352Z,11.87
2022-11-15T09:35:26.806Z,12.10
2022-11-15T09:38:13.910Z,12.80
2022-11-15T09:41:16.671Z,12.76
2022-11-15T09:44:35.853Z,12.59
2022-11-15T09:47:38.273Z,12.44
2022-11-15T09:50:14.438Z,12.63
2022-11-15T09:52:46.049Z,13.13
2022-11-15T09:55:17.950Z,12.68
2022-11-15T09:57:56.187Z,13.71
2022-11-15T10:00:45.934Z,14.05
2022-11-15T10:03:21.222Z,13.86
2022-11-15T10:05:52.694Z,14.05
2022-11-15T10:08:39.995Z,13.03
2022-11-15T10:11:37.163Z,12.76
2022-11-15T10:13:48.909Z,13.05
2022-11-15T10:16:39.786Z,13.51
2022-11-15T10:19:27.521Z,12.91
2022-11-15T10:22:19.568Z,12.87
2022-11-15T10:24:49.395Z,12.45
2022-11-15T10:27:20.517Z,13.47
2022-11-15T10:29:51.641Z,13.31
2022-11-15T10:32:22.553Z,13.59
2022-11-15T10:34:52.308Z,14.25
2022-11-15T10:37:32.627Z,15.12
2022-11-15T10:40:09.404Z,14.60
2022-11-15T10:42:39.770Z,15.78
2022-11-15T10:45:30.095Z,14.94
2022-11-15T10:48:17.686Z,15.16
2022-11-15T10:50:48.215Z,14.50
2022-11-15T10:53:23.447Z,14.63
2022-11-15T10:55:54.992Z,15.27
2022-11-15T10:58:33.867Z,15.18
2022-11-15T11:01:21.375Z,14.72
2022-11-15T11:04:03.147Z,14.44
2022-11-15T11:06:33.581Z,14.01
2022-11-15T11:09:06.235Z,13.48
2022-11-15T11:11:48.085Z,12.97
2022-11-15T11:14:27.828Z,13.00
2022-11-15T11:17:00.193Z,12.41
2022-11-15T11:19:41.598Z,12.32
2022-11-15T11:22:30.451Z,12.07
2022-11-15T11:25:30.632Z,12.27
2022-11-15T11:28:17.805Z,12.63
2022-11-15T11:30:52.946Z,12.54
2022-11-15T11:33:24.157Z,12.71
2022-11-15T11:35:56.728Z,12.98
2022-11-15T11:38:33.037Z,13.13
2022-11-15T11:41:14.553Z,13.12
2022-11-15T11:44:02.081Z,13.37
2022-11-15T11:46:47.079Z,12.54
2022-11-15T11:49:24.983Z,12.59
2022-11-15T11:52:00.094Z,12.67
2022-11-15T11:54:36.941Z,12.45
2022-11-15T11:57:09.371Z,12.47
2022-11-15T11:59:47.755Z,12.73
2022-11-15T12:02:35.786Z,12.82
2022-11-15T12:05:17.018Z,13.19
2022-11-15T12:07:47.679Z,12.61
2022-11-15T12:10:26.943Z,12.77
2022-11-15T12:13:05.174Z,12.90
2022-11-15T12:15:40.356Z,12.91
2022-11-15T12:18:12.853Z,13.38
2022-11-15T12:20:44.672Z,13.12
2022-11-15T12:23:30.030Z,13.41
2022-11-15T12:26:07.616Z,13.31
2022-11-15T12:29:07.413Z,12.66
2022-11-15T12:31:47.004Z,12.42
2022-11-15T12:34:25.295Z,12.40
2022-11-15T12:36:54.660Z,12.26
2022-11-15T12:39:27.279Z,12.16
2022-11-15T12:42:00.143Z,12.10
2022-11-15T12:44:41.330Z,12.04
2022-11-15T12:47:24.710Z,11.89
2022-11-15T12:49:54.468Z,11.85
2022-11-15T12:52:25.169Z,11.86
2022-11-15T12:54:57.476Z,11.76
2022-11-15T12:57:35.631Z,11.72
2022-11-15T13:00:19.484Z,11.69
2022-11-15T13:02:49.402Z,11.75
2022-11-15T13:05:23.502Z,11.76
2022-11-15T13:07:58.276Z,11.71
2022-11-15T13:10:33.424Z,11.83
2022-11-15T13:13:05.364Z,11.83
2022-11-15T13:15:43.142Z,11.79
2022-11-15T13:18:33.106Z,11.67
2022-11-15T13:21:05.850Z,11.61
2022-11-15T13:23:35.058Z,11.63
2022-11-15T13:26:16.807Z,11.54
2022-11-15T13:28:49.787Z,11.66
2022-11-15T13:31:30.628Z,11.63
2022-11-15T13:34:02.979Z,11.64
2022-11-15T13:36:35.706Z,11.72
2022-11-15T13:39:08.042Z,11.72
2022-11-15T13:41:40.490Z,11.76
2022-11-15T13:44:13.208Z,11.70
2022-11-15T13:46:41.838Z,11.62
2022-11-15T13:49:15.462Z,11.53
2022-11-15T13:51:55.985Z,11.52
2022-11-15T13:54:34.222Z,11.51
2022-11-15T13:57:05.834Z,11.48
2022-11-15T13:59:41.025Z,11.43
2022-11-15T14:02:19.073Z,11.46
2022-11-15T14:04:54.639Z,11.37
2022-11-15T14:07:26.472Z,11.32
2022-11-15T14:09:56.197Z,11.34
2022-11-15T14:12:36.053Z,11.29
2022-11-15T14:15:25.261Z,11.30
2022-11-15T14:17:54.664Z,11.28
2022-11-15T14:20:33.018Z,11.27
2022-11-15T14:23:05.140Z,11.24
2022-11-15T14:25:38.006Z,11.28
2022-11-15T14:28:25.548Z,11.31
2022-11-15T14:30:57.417Z,11.27
2022-11-15T14:33:35.388Z,11.32
2022-11-15T14:36:19.961Z,11.32
2022-11-15T14:38:49.876Z,11.29
2022-11-15T14:41:27.879Z,11.35
2022-11-15T14:43:58.647Z,11.45
2022-11-15T14:46:28.045Z,11.38
2022-11-15T14:48:59.164Z,11.36
2022-11-15T14:51:28.600Z,11.38
2022-11-15T14:53:58.021Z,11.34
2022-11-15T14:56:27.625Z,11.29
2022-11-15T14:58:57.130Z,11.27
2022-11-15T15:01:27.837Z,11.33
2022-11-15T15:03:58.213Z,11.31
2022-11-15T15:06:28.472Z,11.33
2022-11-15T15:08:58.069Z,11.25
2022-11-15T15:11:32.585Z,11.29
2022-11-15T15:14:02.296Z,11.31
2022-11-15T15:16:31.572Z,11.27
2022-11-15T15:19:01.223Z,11.33
2022-11-15T15:21:36.853Z,11.33
2022-11-15T15:24:03.106Z,11.29
2022-11-15T15:26:33.868Z,11.27
2022-11-15T15:29:03.108Z,11.38
2022-11-15T15:31:33.826Z,11.44
2022-11-15T15:34:03.435Z,11.39
2022-11-15T15:36:32.768Z,11.31
2022-11-15T15:39:02.041Z,11.25
2022-11-15T15:41:31.241Z,11.34
2022-11-15T15:44:00.513Z,11.25
2022-11-15T15:46:29.701Z,11.20
2022-11-15T15:48:58.929Z,11.12
2022-11-15T15:51:28.139Z,11.01
2022-11-15T15:53:59.077Z,11.00
2022-11-15T15:56:29.235Z,11.00
2022-11-15T15:58:58.579Z,10.96
2022-11-15T16:01:28.079Z,10.87
2022-11-15T16:03:57.371Z,10.78
2022-11-15T16:06:40.264Z,10.73
2022-11-15T16:09:16.002Z,10.56
2022-11-15T16:11:43.016Z,10.46
2022-11-15T16:14:12.512Z,10.42
2022-11-15T16:16:41.868Z,10.29
2022-11-15T16:19:12.214Z,10.24
2022-11-15T16:21:41.491Z,10.15
2022-11-15T16:24:10.838Z,10.10
2022-11-15T16:26:40.529Z,10.09
2022-11-15T16:29:11.761Z,10.03
2022-11-15T16:31:41.034Z,9.93
2022-11-15T16:34:10.423Z,9.86
2022-11-15T16:36:39.757Z,9.88
2022-11-15T16:39:13.982Z,9.78
2022-11-15T16:41:45.421Z,9.80
2022-11-15T16:44:15.363Z,9.73
2022-11-15T16:46:46.490Z,9.75
2022-11-15T16:49:16.205Z,9.73
2022-11-15T16:51:47.803Z,9.72
2022-11-15T16:54:17.156Z,9.68
2022-11-15T16:56:46.418Z,9.63
2022-11-15T16:59:21.129Z,9.64
2022-11-15T17:01:53.296Z,9.62
2022-11-15T17:04:22.785Z,9.58
2022-11-15T17:06:52.103Z,9.57
2022-11-15T17:09:26.539Z,9.58
2022-11-15T17:11:55.717Z,9.56
2022-11-15T17:14:25.110Z,9.52
2022-11-15T17:16:57.096Z,9.56
2022-11-15T17:19:26.339Z,9.55
2022-11-15T17:21:56.120Z,9.55
2022-11-15T17:24:25.517Z,9.53
2022-11-15T17:26:54.857Z,9.54
2022-11-15T17:29:24.197Z,9.56
2022-11-15T17:31:53.423Z,9.55
2022-11-15T17:34:22.814Z,9.53
2022-11-15T17:36:52.063Z,9.52
2022-11-15T17:39:22.947Z,9.52
2022-11-15T17:41:52.361Z,9.53
2022-11-15T17:44:21.699Z,9.54
2022-11-15T17:46:51.055Z,9.51
2022-11-15T17:49:20.364Z,9.52
2022-11-15T17:51:50.345Z,9.50
2022-11-15T17:54:20.019Z,9.51
2022-11-15T17:56:49.356Z,9.51
2022-11-15T17:59:21.640Z,9.54
2022-11-15T18:01:50.259Z,9.54
2022-11-15T18:04:19.495Z,9.53
2022-11-15T18:06:49.206Z,9.50
2022-11-15T18:09:19.274Z,9.48
2022-11-15T18:11:50.693Z,9.53
2022-11-15T18:14:20.384Z,9.63
2022-11-15T18:16:49.848Z,9.58
2022-11-15T18:19:19.133Z,9.58
2022-11-15T18:21:57.375Z,9.62
2022-11-15T18:24:29.133Z,9.61
2022-11-15T18:26:59.832Z,9.61
2022-11-15T18:29:29.335Z,9.63
2022-11-15T18:31:59.534Z,9.60
2022-11-15T18:34:33.966Z,9.68
2022-11-15T18:37:04.034Z,9.66
2022-11-15T18:39:33.238Z,9.68
2022-11-15T18:42:03.487Z,9.66
2022-11-15T18:44:32.771Z,9.70
2022-11-15T18:47:02.325Z,9.78
2022-11-15T18:49:31.657Z,9.76
2022-11-15T18:52:00.903Z,9.76
2022-11-15T18:54:31.558Z,9.77
2022-11-15T18:57:01.764Z,9.76
2022-11-15T18:59:31.106Z,9.75
2022-11-15T19:02:02.005Z,9.73
2022-11-15T19:04:31.523Z,9.74
2022-11-15T19:07:01.156Z,9.76
2022-11-15T19:09:32.222Z,9.73
2022-11-15T19:12:02.057Z,9.78
2022-11-15T19:14:31.790Z,9.74
2022-11-15T19:17:01.176Z,9.77
2022-11-15T19:19:30.755Z,9.76
2022-11-15T19:22:01.435Z,9.78
2022-11-15T19:24:30.775Z,9.80
2022-11-15T19:27:00.493Z,9.85
2022-11-15T19:29:29.883Z,9.86
2022-11-15T19:31:59.153Z,9.83
2022-11-15T19:34:28.491Z,9.86
2022-11-15T19:36:58.000Z,9.89
2022-11-15T19:39:27.286Z,9.87
2022-11-15T19:41:56.623Z,9.86
2022-11-15T19:44:27.296Z,9.88
2022-11-15T19:46:56.535Z,9.87
2022-11-15T19:49:26.199Z,9.90
2022-11-15T19:51:55.430Z,9.92
2022-11-15T19:54:24.780Z,9.96
2022-11-15T19:56:54.207Z,10.01
2022-11-15T19:59:23.535Z,10.03
2022-11-15T20:01:52.753Z,10.05
2022-11-15T20:04:22.149Z,10.05
2022-11-15T20:06:51.375Z,10.06
2022-11-15T20:09:21.063Z,10.12
2022-11-15T20:11:50.321Z,10.09
2022-11-15T20:14:19.804Z,10.09
2022-11-15T20:16:54.111Z,10.09
2022-11-15T20:19:20.016Z,10.09
2022-11-15T20:21:50.310Z,10.05
2022-11-15T20:24:19.689Z,10.12
2022-11-15T20:26:49.029Z,10.14
2022-11-15T20:29:18.320Z,10.38
2022-11-15T20:31:47.834Z,10.55
2022-11-15T20:34:17.210Z,10.49
2022-11-15T20:36:46.445Z,10.41
2022-11-15T20:39:15.749Z,10.35
2022-11-15T20:41:44.953Z,10.28
2022-11-15T20:44:14.353Z,10.23
2022-11-15T20:46:43.560Z,10.24
2022-11-15T20:49:12.988Z,10.24
2022-11-15T20:51:42.264Z,10.26
2022-11-15T20:54:11.574Z,10.20
2022-11-15T20:56:40.859Z,10.28
2022-11-15T20:59:10.160Z,10.22
2022-11-15T21:01:39.648Z,10.26
2022-11-15T21:04:09.177Z,10.25
2022-11-15T21:06:38.540Z,10.19
2022-11-15T21:09:25.683Z,10.30
2022-11-15T21:12:13.468Z,10.23
2022-11-15T21:14:43.992Z,10.24
2022-11-15T21:17:13.396Z,10.22
2022-11-15T21:19:43.412Z,10.24
2022-11-15T21:22:14.700Z,10.25
2022-11-15T21:24:44.183Z,10.25
2022-11-15T21:27:13.448Z,10.25
2022-11-15T21:29:44.451Z,10.27
2022-11-15T21:32:13.684Z,10.28
2022-11-15T21:34:42.900Z,10.34
2022-11-15T21:37:12.116Z,10.32
2022-11-15T21:39:41.359Z,10.29
2022-11-15T21:42:10.555Z,10.35
2022-11-15T21:44:39.869Z,10.31
2022-11-15T21:47:09.179Z,10.34
2022-11-15T21:49:38.648Z,10.35
2022-11-15T21:52:07.857Z,10.34
2022-11-15T21:54:38.949Z,10.35
2022-11-15T21:57:08.162Z,10.32
2022-11-15T21:59:39.735Z,10.34
2022-11-15T22:02:16.759Z,10.31
2022-11-15T22:04:45.979Z,10.34
2022-11-15T22:07:15.296Z,10.36
2022-11-15T22:09:45.063Z,10.37
2022-11-15T22:12:14.539Z,10.36
2022-11-15T22:14:43.760Z,10.38
2022-11-15T22:17:14.256Z,10.36
2022-11-15T22:19:52.673Z,10.35
2022-11-15T22:22:15.924Z,10.36
2022-11-15T22:24:45.443Z,10.41
2022-11-15T22:27:14.656Z,10.40
2022-11-15T22:29:43.881Z,10.40
2022-11-15T22:32:13.084Z,10.41
2022-11-15T22:34:42.392Z,10.43
2022-11-15T22:37:20.663Z,10.38
2022-11-15T22:39:42.588Z,10.38
2022-11-15T22:42:11.767Z,10.40
2022-11-15T22:44:41.254Z,10.41
2022-11-15T22:47:10.461Z,10.41
2022-11-15T22:49:39.894Z,10.43
2022-11-15T22:52:09.344Z,10.40
2022-11-15T22:54:38.774Z,10.38
2022-11-15T22:57:08.069Z,10.38
2022-11-15T22:59:37.818Z,10.37
2022-11-15T23:02:07.084Z,10.40
2022-11-15T23:04:36.328Z,10.41
2022-11-15T23:07:05.831Z,10.39
2022-11-15T23:09:35.213Z,10.40
2022-11-15T23:12:23.147Z,10.36
2022-11-15T23:14:52.381Z,10.40
2022-11-15T23:17:21.611Z,10.41
2022-11-15T23:19:50.837Z,10.40
2022-11-15T23:22:38.031Z,10.40
2022-11-15T23:25:08.138Z,10.44
2022-11-15T23:27:37.943Z,10.41
2022-11-15T23:30:26.307Z,10.44
2022-11-15T23:33:13.569Z,10.43
2022-11-15T23:35:43.119Z,10.43
2022-11-15T23:38:12.458Z,10.40
2022-11-15T23:40:41.824Z,10.40
2022-11-15T23:43:11.294Z,10.44
2022-11-15T23:45:40.596Z,10.43
2022-11-15T23:48:09.812Z,10.44
2022-11-15T23:50:39.615Z,10.46
2022-11-15T23:53:08.990Z,10.47
2022-11-15T23:55:38.498Z,10.46
2022-11-15T23:58:08.563Z,10.45
